sensor_id;sensor_type;location;lat;lon;timestamp;temperature;humidity
39503;DHT22;26970;49.900;10.774;2022-12-18T00:01:19;-9.70;99.90
39503;DHT22;26970;49.900;10.774;2022-12-18T00:03:45;-9.60;99.90
39503;DHT22;26970;49.900;10.774;2022-12-18T00:06:11;-9.60;99.90
39503;DHT22;26970;49.900;10.774;2022-12-18T00:08:37;-9.50;99.90
39503;DHT22;26970;49.900;10.774;2022-12-18T00:11:04;-9.50;99.90
39503;DHT22;26970;49.900;10.774;2022-12-18T00:13:30;-9.40;99.90
39503;DHT22;26970;49.900;10.774;2022-12-18T00:16:02;-9.40;99.90
39503;DHT22;26970;49.900;10.774;2022-12-18T00:18:27;-9.40;99.90
39503;DHT22;26970;49.900;10.774;2022-12-18T00:20:53;-9.40;99.90
39503;DHT22;26970;49.900;10.774;2022-12-18T00:23:18;-9.40;99.90
39503;DHT22;26970;49.900;10.774;2022-12-18T00:25:44;-9.40;99.90
39503;DHT22;26970;49.900;10.774;2022-12-18T00:28:10;-9.50;99.90
39503;DHT22;26970;49.900;10.774;2022-12-18T00:30:35;-9.50;99.90
39503;DHT22;26970;49.900;10.774;2022-12-18T00:33:01;-9.50;99.90
39503;DHT22;26970;49.900;10.774;2022-12-18T00:35:26;-9.60;99.90
39503;DHT22;26970;49.900;10.774;2022-12-18T00:37:52;-9.60;99.90
39503;DHT22;26970;49.900;10.774;2022-12-18T00:40:17;-9.70;99.90
39503;DHT22;26970;49.900;10.774;2022-12-18T00:42:43;-9.70;99.90
39503;DHT22;26970;49.900;10.774;2022-12-18T00:45:29;-9.80;99.90
39503;DHT22;26970;49.900;10.774;2022-12-18T00:47:55;-9.90;99.90
39503;DHT22;26970;49.900;10.774;2022-12-18T00:50:22;-9.90;99.90
39503;DHT22;26970;49.900;10.774;2022-12-18T00:52:48;-10.00;99.90
39503;DHT22;26970;49.900;10.774;2022-12-18T00:55:13;-9.50;99.90
39503;DHT22;26970;49.900;10.774;2022-12-18T00:57:39;-9.90;99.90
39503;DHT22;26970;49.900;10.774;2022-12-18T01:00:09;-10.00;99.90
39503;DHT22;26970;49.900;10.774;2022-12-18T01:02:36;-10.00;99.90
39503;DHT22;26970;49.900;10.774;2022-12-18T01:05:01;-10.10;99.90
39503;DHT22;26970;49.900;10.774;2022-12-18T01:07:27;-10.00;99.90
39503;DHT22;26970;49.900;10.774;2022-12-18T01:09:52;-10.10;99.90
39503;DHT22;26970;49.900;10.774;2022-12-18T01:12:18;-10.10;99.90
39503;DHT22;26970;49.900;10.774;2022-12-18T01:14:43;-10.10;99.90
39503;DHT22;26970;49.900;10.774;2022-12-18T01:17:09;-10.10;99.90
39503;DHT22;26970;49.900;10.774;2022-12-18T01:19:35;-9.80;99.90
39503;DHT22;26970;49.900;10.774;2022-12-18T01:22:01;-9.20;99.90
39503;DHT22;26970;49.900;10.774;2022-12-18T01:24:26;-10.10;99.90
39503;DHT22;26970;49.900;10.774;2022-12-18T01:26:52;-10.10;99.90
39503;DHT22;26970;49.900;10.774;2022-12-18T01:29:17;-10.20;99.90
39503;DHT22;26970;49.900;10.774;2022-12-18T01:31:43;-10.10;99.90
39503;DHT22;26970;49.900;10.774;2022-12-18T01:34:09;-10.10;99.90
39503;DHT22;26970;49.900;10.774;2022-12-18T01:36:37;-10.10;99.90
39503;DHT22;26970;49.900;10.774;2022-12-18T01:39:15;-10.20;99.90
39503;DHT22;26970;49.900;10.774;2022-12-18T01:41:41;-10.10;99.90
39503;DHT22;26970;49.900;10.774;2022-12-18T01:47:33;-10.10;99.90
39503;DHT22;26970;49.900;10.774;2022-12-18T01:52:42;-10.10;99.90
39503;DHT22;26970;49.900;10.774;2022-12-18T01:55:09;-9.50;99.90
39503;DHT22;26970;49.900;10.774;2022-12-18T01:57:38;-10.30;99.90
39503;DHT22;26970;49.900;10.774;2022-12-18T02:00:15;-10.20;99.90
39503;DHT22;26970;49.900;10.774;2022-12-18T02:02:43;-10.20;99.90
39503;DHT22;26970;49.900;10.774;2022-12-18T02:05:10;-10.20;99.90
39503;DHT22;26970;49.900;10.774;2022-12-18T02:08:09;-10.20;99.90
39503;DHT22;26970;49.900;10.774;2022-12-18T02:11:09;-10.20;99.90
39503;DHT22;26970;49.900;10.774;2022-12-18T02:16:59;-10.20;99.90
39503;DHT22;26970;49.900;10.774;2022-12-18T02:27:18;-10.20;99.90
39503;DHT22;26970;49.900;10.774;2022-12-18T02:29:49;-10.30;99.90
39503;DHT22;26970;49.900;10.774;2022-12-18T02:32:20;-10.30;99.90
39503;DHT22;26970;49.900;10.774;2022-12-18T02:34:51;-10.20;99.90
39503;DHT22;26970;49.900;10.774;2022-12-18T02:37:18;-10.10;99.90
39503;DHT22;26970;49.900;10.774;2022-12-18T02:39:47;-10.20;99.90
39503;DHT22;26970;49.900;10.774;2022-12-18T02:42:14;-10.20;99.90
39503;DHT22;26970;49.900;10.774;2022-12-18T02:44:46;-10.20;99.90
39503;DHT22;26970;49.900;10.774;2022-12-18T02:47:13;-10.30;99.90
39503;DHT22;26970;49.900;10.774;2022-12-18T02:49:53;-10.30;99.90
39503;DHT22;26970;49.900;10.774;2022-12-18T02:52:34;-10.30;99.90
39503;DHT22;26970;49.900;10.774;2022-12-18T02:57:55;-10.10;99.90
39503;DHT22;26970;49.900;10.774;2022-12-18T03:00:24;-10.00;99.90
39503;DHT22;26970;49.900;10.774;2022-12-18T03:03:14;-10.10;99.90
39503;DHT22;26970;49.900;10.774;2022-12-18T03:05:47;-10.10;99.90
39503;DHT22;26970;49.900;10.774;2022-12-18T03:08:21;-10.10;99.90
39503;DHT22;26970;49.900;10.774;2022-12-18T03:11:14;-10.20;99.90
39503;DHT22;26970;49.900;10.774;2022-12-18T03:13:53;-10.20;99.90
39503;DHT22;26970;49.900;10.774;2022-12-18T03:16:28;-10.30;99.90
39503;DHT22;26970;49.900;10.774;2022-12-18T03:19:04;-10.30;99.90
39503;DHT22;26970;49.900;10.774;2022-12-18T03:21:43;-10.40;99.90
39503;DHT22;26970;49.900;10.774;2022-12-18T03:24:11;-10.40;99.90
39503;DHT22;26970;49.900;10.774;2022-12-18T03:26:40;-10.40;99.90
39503;DHT22;26970;49.900;10.774;2022-12-18T03:29:36;-10.50;99.90
39503;DHT22;26970;49.900;10.774;2022-12-18T03:32:06;-10.60;99.90
39503;DHT22;26970;49.900;10.774;2022-12-18T03:34:35;-10.70;99.90
39503;DHT22;26970;49.900;10.774;2022-12-18T03:37:02;-10.90;99.90
39503;DHT22;26970;49.900;10.774;2022-12-18T03:39:27;-11.00;99.90
39503;DHT22;26970;49.900;10.774;2022-12-18T03:45:04;-11.10;99.90
39503;DHT22;26970;49.900;10.774;2022-12-18T03:50:18;-11.20;99.90
39503;DHT22;26970;49.900;10.774;2022-12-18T03:53:00;-11.30;99.90
39503;DHT22;26970;49.900;10.774;2022-12-18T03:55:30;-11.40;99.90
39503;DHT22;26970;49.900;10.774;2022-12-18T03:57:58;-11.60;99.90
39503;DHT22;26970;49.900;10.774;2022-12-18T04:00:25;-11.70;99.90
39503;DHT22;26970;49.900;10.774;2022-12-18T04:02:55;-11.80;99.90
39503;DHT22;26970;49.900;10.774;2022-12-18T04:05:24;-11.80;99.90
39503;DHT22;26970;49.900;10.774;2022-12-18T04:07:51;-11.90;99.90
39503;DHT22;26970;49.900;10.774;2022-12-18T04:10:18;-11.90;99.90
39503;DHT22;26970;49.900;10.774;2022-12-18T04:12:44;-12.00;99.90
39503;DHT22;26970;49.900;10.774;2022-12-18T04:15:10;-11.90;99.90
39503;DHT22;26970;49.900;10.774;2022-12-18T04:17:37;-11.90;99.90
39503;DHT22;26970;49.900;10.774;2022-12-18T04:20:04;-11.80;99.90
39503;DHT22;26970;49.900;10.774;2022-12-18T04:22:29;-11.80;99.90
39503;DHT22;26970;49.900;10.774;2022-12-18T04:24:55;-11.70;99.90
39503;DHT22;26970;49.900;10.774;2022-12-18T04:27:21;-11.60;99.90
39503;DHT22;26970;49.900;10.774;2022-12-18T04:29:47;-11.50;99.90
39503;DHT22;26970;49.900;10.774;2022-12-18T04:32:12;-11.30;99.90
39503;DHT22;26970;49.900;10.774;2022-12-18T04:34:38;-11.00;99.90
39503;DHT22;26970;49.900;10.774;2022-12-18T04:37:03;-10.80;99.90
39503;DHT22;26970;49.900;10.774;2022-12-18T04:39:29;-10.70;99.90
39503;DHT22;26970;49.900;10.774;2022-12-18T04:41:55;-10.60;99.90
39503;DHT22;26970;49.900;10.774;2022-12-18T04:44:20;-10.60;99.90
39503;DHT22;26970;49.900;10.774;2022-12-18T04:46:46;-10.60;99.90
39503;DHT22;26970;49.900;10.774;2022-12-18T04:49:11;-10.60;99.90
39503;DHT22;26970;49.900;10.774;2022-12-18T04:51:38;-10.70;99.90
39503;DHT22;26970;49.900;10.774;2022-12-18T04:54:03;-10.70;99.90
39503;DHT22;26970;49.900;10.774;2022-12-18T04:56:30;-10.70;99.90
39503;DHT22;26970;49.900;10.774;2022-12-18T04:58:56;-10.80;99.90
39503;DHT22;26970;49.900;10.774;2022-12-18T05:01:22;-10.90;99.90
39503;DHT22;26970;49.900;10.774;2022-12-18T05:03:47;-11.00;99.90
39503;DHT22;26970;49.900;10.774;2022-12-18T05:06:13;-11.10;99.90
39503;DHT22;26970;49.900;10.774;2022-12-18T05:08:38;-11.20;99.90
39503;DHT22;26970;49.900;10.774;2022-12-18T05:11:07;-11.20;99.90
39503;DHT22;26970;49.900;10.774;2022-12-18T05:13:34;-11.10;99.90
39503;DHT22;26970;49.900;10.774;2022-12-18T05:16:00;-11.10;99.90
39503;DHT22;26970;49.900;10.774;2022-12-18T05:18:26;-11.00;99.90
39503;DHT22;26970;49.900;10.774;2022-12-18T05:20:52;-11.00;99.90
39503;DHT22;26970;49.900;10.774;2022-12-18T05:23:19;-10.60;99.90
39503;DHT22;26970;49.900;10.774;2022-12-18T05:25:55;-10.80;99.90
39503;DHT22;26970;49.900;10.774;2022-12-18T05:28:24;-10.70;99.90
39503;DHT22;26970;49.900;10.774;2022-12-18T05:30:50;-10.50;99.90
39503;DHT22;26970;49.900;10.774;2022-12-18T05:33:17;-10.40;99.90
39503;DHT22;26970;49.900;10.774;2022-12-18T05:35:43;-10.30;99.90
39503;DHT22;26970;49.900;10.774;2022-12-18T05:38:09;-10.20;99.90
39503;DHT22;26970;49.900;10.774;2022-12-18T05:40:35;-10.10;99.90
39503;DHT22;26970;49.900;10.774;2022-12-18T05:43:01;-10.10;99.90
39503;DHT22;26970;49.900;10.774;2022-12-18T05:45:27;-10.00;99.90
39503;DHT22;26970;49.900;10.774;2022-12-18T05:47:52;-10.00;99.90
39503;DHT22;26970;49.900;10.774;2022-12-18T05:50:18;-9.90;99.90
39503;DHT22;26970;49.900;10.774;2022-12-18T05:52:43;-10.00;99.90
39503;DHT22;26970;49.900;10.774;2022-12-18T05:55:09;-10.00;99.90
39503;DHT22;26970;49.900;10.774;2022-12-18T05:57:35;-9.90;99.90
39503;DHT22;26970;49.900;10.774;2022-12-18T06:00:00;-9.90;99.90
39503;DHT22;26970;49.900;10.774;2022-12-18T06:02:26;-9.90;99.90
39503;DHT22;26970;49.900;10.774;2022-12-18T06:04:51;-9.90;99.90
39503;DHT22;26970;49.900;10.774;2022-12-18T06:07:17;-9.80;99.90
39503;DHT22;26970;49.900;10.774;2022-12-18T06:09:42;-9.80;99.90
39503;DHT22;26970;49.900;10.774;2022-12-18T06:12:08;-9.70;99.90
39503;DHT22;26970;49.900;10.774;2022-12-18T06:14:33;-9.70;99.90
39503;DHT22;26970;49.900;10.774;2022-12-18T06:16:59;-9.70;99.90
39503;DHT22;26970;49.900;10.774;2022-12-18T06:19:24;-9.60;99.90
39503;DHT22;26970;49.900;10.774;2022-12-18T06:21:50;-9.60;99.90
39503;DHT22;26970;49.900;10.774;2022-12-18T06:24:16;-9.50;99.90
39503;DHT22;26970;49.900;10.774;2022-12-18T06:26:42;-9.50;99.90
39503;DHT22;26970;49.900;10.774;2022-12-18T06:29:07;-9.50;99.90
39503;DHT22;26970;49.900;10.774;2022-12-18T06:31:33;-9.50;99.90
39503;DHT22;26970;49.900;10.774;2022-12-18T06:33:58;-9.40;99.90
39503;DHT22;26970;49.900;10.774;2022-12-18T06:36:24;-9.50;99.90
39503;DHT22;26970;49.900;10.774;2022-12-18T06:38:49;-9.50;99.90
39503;DHT22;26970;49.900;10.774;2022-12-18T06:41:17;-9.40;99.90
39503;DHT22;26970;49.900;10.774;2022-12-18T06:43:43;-9.40;99.90
39503;DHT22;26970;49.900;10.774;2022-12-18T06:46:10;-9.40;99.90
39503;DHT22;26970;49.900;10.774;2022-12-18T06:48:35;-9.40;99.90
39503;DHT22;26970;49.900;10.774;2022-12-18T06:51:01;-9.40;99.90
39503;DHT22;26970;49.900;10.774;2022-12-18T06:53:27;-9.40;99.90
39503;DHT22;26970;49.900;10.774;2022-12-18T06:55:59;-9.30;99.90
39503;DHT22;26970;49.900;10.774;2022-12-18T06:58:24;-9.30;99.90
39503;DHT22;26970;49.900;10.774;2022-12-18T07:00:50;-9.20;99.90
39503;DHT22;26970;49.900;10.774;2022-12-18T07:03:15;-9.20;99.90
39503;DHT22;26970;49.900;10.774;2022-12-18T07:05:41;-9.20;99.90
39503;DHT22;26970;49.900;10.774;2022-12-18T07:08:06;-9.10;99.90
39503;DHT22;26970;49.900;10.774;2022-12-18T07:10:32;-9.10;99.90
39503;DHT22;26970;49.900;10.774;2022-12-18T07:12:58;-9.00;99.90
39503;DHT22;26970;49.900;10.774;2022-12-18T07:15:23;-9.00;99.90
39503;DHT22;26970;49.900;10.774;2022-12-18T07:17:49;-9.00;99.90
39503;DHT22;26970;49.900;10.774;2022-12-18T07:20:14;-9.00;99.90
39503;DHT22;26970;49.900;10.774;2022-12-18T07:22:40;-9.00;99.90
39503;DHT22;26970;49.900;10.774;2022-12-18T07:25:06;-9.10;99.90
39503;DHT22;26970;49.900;10.774;2022-12-18T07:27:32;-9.10;99.90
39503;DHT22;26970;49.900;10.774;2022-12-18T07:29:57;-9.10;99.90
39503;DHT22;26970;49.900;10.774;2022-12-18T07:32:23;-9.10;99.90
39503;DHT22;26970;49.900;10.774;2022-12-18T07:34:48;-9.00;99.90
39503;DHT22;26970;49.900;10.774;2022-12-18T07:37:14;-9.00;99.90
39503;DHT22;26970;49.900;10.774;2022-12-18T07:39:39;-9.00;99.90
39503;DHT22;26970;49.900;10.774;2022-12-18T07:42:05;-9.00;99.90
39503;DHT22;26970;49.900;10.774;2022-12-18T07:44:49;-8.90;99.90
39503;DHT22;26970;49.900;10.774;2022-12-18T07:47:14;-8.80;99.90
39503;DHT22;26970;49.900;10.774;2022-12-18T07:49:40;-8.70;99.90
39503;DHT22;26970;49.900;10.774;2022-12-18T07:52:05;-8.70;99.90
39503;DHT22;26970;49.900;10.774;2022-12-18T07:54:31;-8.60;99.90
39503;DHT22;26970;49.900;10.774;2022-12-18T07:56:56;-8.50;99.90
39503;DHT22;26970;49.900;10.774;2022-12-18T07:59:22;-8.40;99.90
39503;DHT22;26970;49.900;10.774;2022-12-18T08:01:47;-8.40;99.90
39503;DHT22;26970;49.900;10.774;2022-12-18T08:04:13;-8.30;99.90
39503;DHT22;26970;49.900;10.774;2022-12-18T08:06:38;-8.30;99.90
39503;DHT22;26970;49.900;10.774;2022-12-18T08:09:04;-8.20;99.90
39503;DHT22;26970;49.900;10.774;2022-12-18T08:11:29;-8.20;99.90
39503;DHT22;26970;49.900;10.774;2022-12-18T08:13:55;-8.20;99.90
39503;DHT22;26970;49.900;10.774;2022-12-18T08:16:22;-8.20;99.90
39503;DHT22;26970;49.900;10.774;2022-12-18T08:18:48;-8.10;99.90
39503;DHT22;26970;49.900;10.774;2022-12-18T08:21:16;-8.10;99.90
39503;DHT22;26970;49.900;10.774;2022-12-18T08:23:43;-8.00;99.90
39503;DHT22;26970;49.900;10.774;2022-12-18T08:26:11;-8.00;99.90
39503;DHT22;26970;49.900;10.774;2022-12-18T08:28:37;-7.90;99.90
39503;DHT22;26970;49.900;10.774;2022-12-18T08:31:03;-7.80;99.90
39503;DHT22;26970;49.900;10.774;2022-12-18T08:33:29;-7.70;99.90
39503;DHT22;26970;49.900;10.774;2022-12-18T08:35:55;-7.70;99.90
39503;DHT22;26970;49.900;10.774;2022-12-18T08:38:20;-7.60;99.90
39503;DHT22;26970;49.900;10.774;2022-12-18T08:40:46;-7.60;99.90
39503;DHT22;26970;49.900;10.774;2022-12-18T08:43:12;-7.60;99.90
39503;DHT22;26970;49.900;10.774;2022-12-18T08:45:56;-7.50;99.90
39503;DHT22;26970;49.900;10.774;2022-12-18T08:48:22;-7.60;99.90
39503;DHT22;26970;49.900;10.774;2022-12-18T08:50:55;-7.50;99.90
39503;DHT22;26970;49.900;10.774;2022-12-18T08:53:21;-7.50;99.90
39503;DHT22;26970;49.900;10.774;2022-12-18T08:55:46;-7.50;99.90
39503;DHT22;26970;49.900;10.774;2022-12-18T08:58:12;-7.50;99.90
39503;DHT22;26970;49.900;10.774;2022-12-18T09:00:37;-7.40;99.90
39503;DHT22;26970;49.900;10.774;2022-12-18T09:03:03;-7.40;99.90
39503;DHT22;26970;49.900;10.774;2022-12-18T09:05:29;-7.30;99.90
39503;DHT22;26970;49.900;10.774;2022-12-18T09:07:55;-7.30;99.90
39503;DHT22;26970;49.900;10.774;2022-12-18T09:10:21;-7.30;99.90
39503;DHT22;26970;49.900;10.774;2022-12-18T09:12:47;-7.30;99.90
39503;DHT22;26970;49.900;10.774;2022-12-18T09:15:12;-7.20;99.90
39503;DHT22;26970;49.900;10.774;2022-12-18T09:17:38;-7.20;99.90
39503;DHT22;26970;49.900;10.774;2022-12-18T09:20:04;-7.20;99.90
39503;DHT22;26970;49.900;10.774;2022-12-18T09:22:30;-7.20;99.90
39503;DHT22;26970;49.900;10.774;2022-12-18T09:24:56;-7.10;99.90
39503;DHT22;26970;49.900;10.774;2022-12-18T09:27:21;-7.10;99.90
39503;DHT22;26970;49.900;10.774;2022-12-18T09:29:47;-7.00;99.90
39503;DHT22;26970;49.900;10.774;2022-12-18T09:32:12;-6.90;99.90
39503;DHT22;26970;49.900;10.774;2022-12-18T09:34:38;-6.90;99.90
39503;DHT22;26970;49.900;10.774;2022-12-18T09:37:04;-6.80;99.90
39503;DHT22;26970;49.900;10.774;2022-12-18T09:39:29;-6.80;99.90
39503;DHT22;26970;49.900;10.774;2022-12-18T09:41:57;-6.70;99.90
39503;DHT22;26970;49.900;10.774;2022-12-18T09:49:28;-6.50;99.90
39503;DHT22;26970;49.900;10.774;2022-12-18T09:52:03;-6.40;99.90
39503;DHT22;26970;49.900;10.774;2022-12-18T09:54:37;-6.40;99.90
39503;DHT22;26970;49.900;10.774;2022-12-18T09:57:04;-6.30;99.90
39503;DHT22;26970;49.900;10.774;2022-12-18T10:01:57;-6.20;99.90
39503;DHT22;26970;49.900;10.774;2022-12-18T10:04:24;-6.20;99.90
39503;DHT22;26970;49.900;10.774;2022-12-18T10:07:06;-6.20;99.90
39503;DHT22;26970;49.900;10.774;2022-12-18T10:20:41;-5.80;99.90
39503;DHT22;26970;49.900;10.774;2022-12-18T10:23:20;-5.70;99.90
39503;DHT22;26970;49.900;10.774;2022-12-18T10:25:56;-5.70;99.90
39503;DHT22;26970;49.900;10.774;2022-12-18T10:28:25;-5.60;99.90
39503;DHT22;26970;49.900;10.774;2022-12-18T10:30:51;-5.60;99.90
39503;DHT22;26970;49.900;10.774;2022-12-18T10:33:21;-5.60;99.90
39503;DHT22;26970;49.900;10.774;2022-12-18T10:35:49;-5.40;99.90
39503;DHT22;26970;49.900;10.774;2022-12-18T10:46:12;-5.20;99.90
39503;DHT22;26970;49.900;10.774;2022-12-18T10:51:23;-5.10;99.90
39503;DHT22;26970;49.900;10.774;2022-12-18T10:53:59;-5.00;99.90
39503;DHT22;26970;49.900;10.774;2022-12-18T10:56:27;-5.00;99.90
39503;DHT22;26970;49.900;10.774;2022-12-18T11:01:22;-4.90;99.90
39503;DHT22;26970;49.900;10.774;2022-12-18T11:06:23;-4.90;99.90
39503;DHT22;26970;49.900;10.774;2022-12-18T11:09:18;-4.90;99.90
39503;DHT22;26970;49.900;10.774;2022-12-18T11:11:53;-5.00;99.90
39503;DHT22;26970;49.900;10.774;2022-12-18T11:14:25;-4.90;99.90
39503;DHT22;26970;49.900;10.774;2022-12-18T11:16:52;-4.90;99.90
39503;DHT22;26970;49.900;10.774;2022-12-18T11:19:36;-4.80;99.90
39503;DHT22;26970;49.900;10.774;2022-12-18T11:22:16;-4.80;99.90
39503;DHT22;26970;49.900;10.774;2022-12-18T11:24:49;-4.80;99.90
39503;DHT22;26970;49.900;10.774;2022-12-18T11:27:18;-4.70;99.90
39503;DHT22;26970;49.900;10.774;2022-12-18T11:29:44;-4.60;99.90
39503;DHT22;26970;49.900;10.774;2022-12-18T11:35:37;-4.60;99.90
39503;DHT22;26970;49.900;10.774;2022-12-18T11:38:24;-4.70;99.90
39503;DHT22;26970;49.900;10.774;2022-12-18T11:44:11;-5.20;99.90
39503;DHT22;26970;49.900;10.774;2022-12-18T11:46:24;-5.00;99.90
39503;DHT22;26970;49.900;10.774;2022-12-18T11:49:03;-5.10;99.90
39503;DHT22;26970;49.900;10.774;2022-12-18T11:51:43;-5.10;99.90
39503;DHT22;26970;49.900;10.774;2022-12-18T11:54:13;-5.10;99.90
39503;DHT22;26970;49.900;10.774;2022-12-18T12:00:02;-5.20;99.90
39503;DHT22;26970;49.900;10.774;2022-12-18T12:02:54;-5.30;99.90
39503;DHT22;26970;49.900;10.774;2022-12-18T12:11:25;-5.30;99.90
39503;DHT22;26970;49.900;10.774;2022-12-18T12:16:41;-5.30;99.90
39503;DHT22;26970;49.900;10.774;2022-12-18T12:22:18;-5.20;99.90
39503;DHT22;26970;49.900;10.774;2022-12-18T12:24:55;-5.20;99.90
39503;DHT22;26970;49.900;10.774;2022-12-18T12:30:16;-5.00;99.90
39503;DHT22;26970;49.900;10.774;2022-12-18T12:33:21;-4.90;99.90
39503;DHT22;26970;49.900;10.774;2022-12-18T12:36:19;-4.90;99.90
39503;DHT22;26970;49.900;10.774;2022-12-18T12:38:55;-5.00;99.90
39503;DHT22;26970;49.900;10.774;2022-12-18T12:41:25;-4.90;99.90
39503;DHT22;26970;49.900;10.774;2022-12-18T12:44:20;-4.90;99.90
39503;DHT22;26970;49.900;10.774;2022-12-18T12:46:47;-4.90;99.90
39503;DHT22;26970;49.900;10.774;2022-12-18T12:49:17;-4.80;99.90
39503;DHT22;26970;49.900;10.774;2022-12-18T12:51:47;-4.90;99.90
39503;DHT22;26970;49.900;10.774;2022-12-18T12:54:19;-4.20;99.90
39503;DHT22;26970;49.900;10.774;2022-12-18T13:05:52;-5.00;99.90
39503;DHT22;26970;49.900;10.774;2022-12-18T13:08:25;-5.00;99.90
39503;DHT22;26970;49.900;10.774;2022-12-18T13:10:52;-5.00;99.90
39503;DHT22;26970;49.900;10.774;2022-12-18T13:13:52;-5.10;99.90
39503;DHT22;26970;49.900;10.774;2022-12-18T13:16:20;-5.20;99.90
39503;DHT22;26970;49.900;10.774;2022-12-18T13:18:53;-5.30;99.90
39503;DHT22;26970;49.900;10.774;2022-12-18T13:21:28;-5.40;99.90
39503;DHT22;26970;49.900;10.774;2022-12-18T13:23:55;-5.40;99.90
39503;DHT22;26970;49.900;10.774;2022-12-18T13:26:28;-5.50;99.90
39503;DHT22;26970;49.900;10.774;2022-12-18T13:28:55;-5.50;99.90
39503;DHT22;26970;49.900;10.774;2022-12-18T13:34:25;-5.50;99.90
39503;DHT22;26970;49.900;10.774;2022-12-18T13:36:52;-5.50;99.90
39503;DHT22;26970;49.900;10.774;2022-12-18T13:41:45;-5.60;99.90
39503;DHT22;26970;49.900;10.774;2022-12-18T13:46:47;-5.60;99.90
39503;DHT22;26970;49.900;10.774;2022-12-18T13:51:48;-5.70;99.90
39503;DHT22;26970;49.900;10.774;2022-12-18T13:54:36;-5.60;99.90
39503;DHT22;26970;49.900;10.774;2022-12-18T13:57:02;-5.70;99.90
39503;DHT22;26970;49.900;10.774;2022-12-18T13:59:36;-5.70;99.90
39503;DHT22;26970;49.900;10.774;2022-12-18T14:02:16;-5.70;99.90
39503;DHT22;26970;49.900;10.774;2022-12-18T14:04:46;-5.70;99.90
39503;DHT22;26970;49.900;10.774;2022-12-18T14:07:14;-5.60;99.90
39503;DHT22;26970;49.900;10.774;2022-12-18T14:09:43;-5.70;99.90
39503;DHT22;26970;49.900;10.774;2022-12-18T14:12:18;-5.60;99.90
39503;DHT22;26970;49.900;10.774;2022-12-18T14:15:05;-5.60;99.90
39503;DHT22;26970;49.900;10.774;2022-12-18T14:17:31;-5.70;99.90
39503;DHT22;26970;49.900;10.774;2022-12-18T14:19:57;-5.40;99.90
39503;DHT22;26970;49.900;10.774;2022-12-18T14:22:26;-5.70;99.90
39503;DHT22;26970;49.900;10.774;2022-12-18T14:25:17;-5.70;99.90
39503;DHT22;26970;49.900;10.774;2022-12-18T14:30:42;-5.70;99.90
39503;DHT22;26970;49.900;10.774;2022-12-18T14:33:18;-5.70;99.90
39503;DHT22;26970;49.900;10.774;2022-12-18T14:35:59;-5.80;99.90
39503;DHT22;26970;49.900;10.774;2022-12-18T14:38:29;-5.80;99.90
39503;DHT22;26970;49.900;10.774;2022-12-18T14:41:06;-5.80;99.90
39503;DHT22;26970;49.900;10.774;2022-12-18T14:43:34;-5.80;99.90
39503;DHT22;26970;49.900;10.774;2022-12-18T14:46:01;-5.80;99.90
39503;DHT22;26970;49.900;10.774;2022-12-18T14:48:41;-5.80;99.90
39503;DHT22;26970;49.900;10.774;2022-12-18T14:51:16;-5.80;99.90
39503;DHT22;26970;49.900;10.774;2022-12-18T14:53:45;-5.80;99.90
39503;DHT22;26970;49.900;10.774;2022-12-18T14:56:26;-5.80;99.90
39503;DHT22;26970;49.900;10.774;2022-12-18T14:58:58;-5.90;99.90
39503;DHT22;26970;49.900;10.774;2022-12-18T15:01:27;-5.90;99.90
39503;DHT22;26970;49.900;10.774;2022-12-18T15:03:54;-5.90;99.90
39503;DHT22;26970;49.900;10.774;2022-12-18T15:06:36;-6.00;99.90
39503;DHT22;26970;49.900;10.774;2022-12-18T15:09:23;-6.00;99.90
39503;DHT22;26970;49.900;10.774;2022-12-18T15:11:49;-6.00;99.90
39503;DHT22;26970;49.900;10.774;2022-12-18T15:14:40;-5.90;99.90
39503;DHT22;26970;49.900;10.774;2022-12-18T15:17:16;-5.90;99.90
39503;DHT22;26970;49.900;10.774;2022-12-18T15:19:43;-5.50;99.90
39503;DHT22;26970;49.900;10.774;2022-12-18T15:22:23;-5.90;99.90
39503;DHT22;26970;49.900;10.774;2022-12-18T15:24:50;-5.90;99.90
39503;DHT22;26970;49.900;10.774;2022-12-18T15:27:35;-5.90;99.90
39503;DHT22;26970;49.900;10.774;2022-12-18T15:30:24;-5.90;99.90
39503;DHT22;26970;49.900;10.774;2022-12-18T15:32:50;-5.90;99.90
39503;DHT22;26970;49.900;10.774;2022-12-18T15:35:20;-5.90;99.90
39503;DHT22;26970;49.900;10.774;2022-12-18T15:37:47;-5.80;99.90
39503;DHT22;26970;49.900;10.774;2022-12-18T15:40:21;-5.80;99.90
39503;DHT22;26970;49.900;10.774;2022-12-18T15:42:47;-5.80;99.90
39503;DHT22;26970;49.900;10.774;2022-12-18T15:45:32;-5.80;99.90
39503;DHT22;26970;49.900;10.774;2022-12-18T15:47:58;-5.80;99.90
39503;DHT22;26970;49.900;10.774;2022-12-18T15:50:24;-5.80;99.90
39503;DHT22;26970;49.900;10.774;2022-12-18T15:52:52;-5.80;99.90
39503;DHT22;26970;49.900;10.774;2022-12-18T15:55:23;-5.80;99.90
39503;DHT22;26970;49.900;10.774;2022-12-18T15:58:09;-5.80;99.90
39503;DHT22;26970;49.900;10.774;2022-12-18T16:00:37;-5.70;99.90
39503;DHT22;26970;49.900;10.774;2022-12-18T16:03:04;-5.60;99.90
39503;DHT22;26970;49.900;10.774;2022-12-18T16:05:31;-5.50;99.90
39503;DHT22;26970;49.900;10.774;2022-12-18T16:07:57;-5.40;99.90
39503;DHT22;26970;49.900;10.774;2022-12-18T16:10:24;-5.40;99.90
39503;DHT22;26970;49.900;10.774;2022-12-18T16:12:50;-5.40;99.90
39503;DHT22;26970;49.900;10.774;2022-12-18T16:15:16;-5.30;99.90
39503;DHT22;26970;49.900;10.774;2022-12-18T16:17:42;-5.30;99.90
39503;DHT22;26970;49.900;10.774;2022-12-18T16:20:14;-5.20;99.90
39503;DHT22;26970;49.900;10.774;2022-12-18T16:22:41;-5.20;99.90
39503;DHT22;26970;49.900;10.774;2022-12-18T16:27:40;-5.10;99.90
39503;DHT22;26970;49.900;10.774;2022-12-18T16:30:08;-5.00;99.90
39503;DHT22;26970;49.900;10.774;2022-12-18T16:32:34;-4.90;99.90
39503;DHT22;26970;49.900;10.774;2022-12-18T16:35:00;-4.90;99.90
39503;DHT22;26970;49.900;10.774;2022-12-18T16:37:26;-4.90;99.90
39503;DHT22;26970;49.900;10.774;2022-12-18T16:39:52;-4.90;99.90
39503;DHT22;26970;49.900;10.774;2022-12-18T16:42:18;-4.90;99.90
39503;DHT22;26970;49.900;10.774;2022-12-18T16:44:45;-4.90;99.90
39503;DHT22;26970;49.900;10.774;2022-12-18T16:47:12;-4.90;99.90
39503;DHT22;26970;49.900;10.774;2022-12-18T16:49:38;-4.90;99.90
39503;DHT22;26970;49.900;10.774;2022-12-18T16:52:05;-4.90;99.90
39503;DHT22;26970;49.900;10.774;2022-12-18T16:54:31;-4.90;99.90
39503;DHT22;26970;49.900;10.774;2022-12-18T16:56:58;-4.90;99.90
39503;DHT22;26970;49.900;10.774;2022-12-18T16:59:25;-4.90;99.90
39503;DHT22;26970;49.900;10.774;2022-12-18T17:01:51;-4.20;99.90
39503;DHT22;26970;49.900;10.774;2022-12-18T17:04:17;-4.90;99.90
39503;DHT22;26970;49.900;10.774;2022-12-18T17:06:45;-4.10;99.90
39503;DHT22;26970;49.900;10.774;2022-12-18T17:09:16;-4.90;99.90
39503;DHT22;26970;49.900;10.774;2022-12-18T17:11:42;-4.90;99.90
39503;DHT22;26970;49.900;10.774;2022-12-18T17:14:11;-4.90;99.90
39503;DHT22;26970;49.900;10.774;2022-12-18T17:16:37;-4.90;99.90